sensor_id;sensor_type;location;lat;lon;timestamp;temperature;humidity
23116;DHT22;11727;52.134;5.052;2022-09-06T00:00:22;19.10;99.90
23116;DHT22;11727;52.134;5.052;2022-09-06T00:02:48;19.10;99.90
23116;DHT22;11727;52.134;5.052;2022-09-06T00:05:13;19.10;99.90
23116;DHT22;11727;52.134;5.052;2022-09-06T00:07:39;19.10;99.90
23116;DHT22;11727;52.134;5.052;2022-09-06T00:10:05;19.10;99.90
23116;DHT22;11727;52.134;5.052;2022-09-06T00:12:32;19.10;99.90
23116;DHT22;11727;52.134;5.052;2022-09-06T00:15:01;19.10;99.90
23116;DHT22;11727;52.134;5.052;2022-09-06T00:17:26;19.10;99.90
23116;DHT22;11727;52.134;5.052;2022-09-06T00:19:52;19.10;99.90
23116;DHT22;11727;52.134;5.052;2022-09-06T00:22:18;19.10;99.90
23116;DHT22;11727;52.134;5.052;2022-09-06T00:24:43;19.10;99.90
23116;DHT22;11727;52.134;5.052;2022-09-06T00:27:09;19.10;99.90
23116;DHT22;11727;52.134;5.052;2022-09-06T00:29:35;19.10;99.90
23116;DHT22;11727;52.134;5.052;2022-09-06T00:32:00;19.10;99.90
23116;DHT22;11727;52.134;5.052;2022-09-06T00:34:26;19.00;99.90
23116;DHT22;11727;52.134;5.052;2022-09-06T00:36:52;19.00;99.90
23116;DHT22;11727;52.134;5.052;2022-09-06T00:39:19;19.00;99.90
23116;DHT22;11727;52.134;5.052;2022-09-06T00:41:44;18.90;99.90
23116;DHT22;11727;52.134;5.052;2022-09-06T00:44:10;19.00;99.90
23116;DHT22;11727;52.134;5.052;2022-09-06T00:46:37;18.90;99.90
23116;DHT22;11727;52.134;5.052;2022-09-06T00:49:19;18.90;99.90
23116;DHT22;11727;52.134;5.052;2022-09-06T00:51:54;18.90;99.90
23116;DHT22;11727;52.134;5.052;2022-09-06T00:54:20;18.90;99.90
23116;DHT22;11727;52.134;5.052;2022-09-06T00:56:46;18.90;99.90
23116;DHT22;11727;52.134;5.052;2022-09-06T00:59:13;18.80;99.90
23116;DHT22;11727;52.134;5.052;2022-09-06T01:01:39;18.80;99.90
23116;DHT22;11727;52.134;5.052;2022-09-06T01:04:05;18.80;99.90
23116;DHT22;11727;52.134;5.052;2022-09-06T01:06:37;18.80;99.90
23116;DHT22;11727;52.134;5.052;2022-09-06T01:09:18;18.80;99.90
23116;DHT22;11727;52.134;5.052;2022-09-06T01:12:15;18.80;99.90
23116;DHT22;11727;52.134;5.052;2022-09-06T01:23:35;18.80;99.90
23116;DHT22;11727;52.134;5.052;2022-09-06T01:26:22;18.80;99.90
23116;DHT22;11727;52.134;5.052;2022-09-06T01:28:49;18.80;99.90
23116;DHT22;11727;52.134;5.052;2022-09-06T01:31:40;18.80;99.90
23116;DHT22;11727;52.134;5.052;2022-09-06T01:39:10;18.70;99.90
23116;DHT22;11727;52.134;5.052;2022-09-06T01:41:38;18.70;99.90
23116;DHT22;11727;52.134;5.052;2022-09-06T01:44:04;18.70;99.90
23116;DHT22;11727;52.134;5.052;2022-09-06T01:46:33;18.70;99.90
23116;DHT22;11727;52.134;5.052;2022-09-06T01:52:15;18.70;99.90
23116;DHT22;11727;52.134;5.052;2022-09-06T01:55:17;18.60;99.90
23116;DHT22;11727;52.134;5.052;2022-09-06T01:58:08;18.60;99.90
23116;DHT22;11727;52.134;5.052;2022-09-06T02:03:52;18.60;99.90
23116;DHT22;11727;52.134;5.052;2022-09-06T02:06:26;18.50;99.90
23116;DHT22;11727;52.134;5.052;2022-09-06T02:09:05;18.50;99.90
23116;DHT22;11727;52.134;5.052;2022-09-06T02:14:42;18.50;99.90
23116;DHT22;11727;52.134;5.052;2022-09-06T02:17:12;18.50;99.90
23116;DHT22;11727;52.134;5.052;2022-09-06T02:19:46;18.50;99.90
23116;DHT22;11727;52.134;5.052;2022-09-06T02:22:16;18.40;99.90
23116;DHT22;11727;52.134;5.052;2022-09-06T02:24:44;18.40;99.90
23116;DHT22;11727;52.134;5.052;2022-09-06T02:27:11;18.40;99.90
23116;DHT22;11727;52.134;5.052;2022-09-06T02:29:41;18.40;99.90
23116;DHT22;11727;52.134;5.052;2022-09-06T02:32:24;18.40;99.90
23116;DHT22;11727;52.134;5.052;2022-09-06T02:34:53;18.40;99.90
23116;DHT22;11727;52.134;5.052;2022-09-06T02:37:19;18.30;99.90
23116;DHT22;11727;52.134;5.052;2022-09-06T02:39:45;18.30;99.90
23116;DHT22;11727;52.134;5.052;2022-09-06T02:42:12;18.30;99.90
23116;DHT22;11727;52.134;5.052;2022-09-06T02:44:38;18.30;99.90
23116;DHT22;11727;52.134;5.052;2022-09-06T02:47:05;18.30;99.90
23116;DHT22;11727;52.134;5.052;2022-09-06T02:49:31;18.20;99.90
23116;DHT22;11727;52.134;5.052;2022-09-06T02:51:57;18.20;99.90
23116;DHT22;11727;52.134;5.052;2022-09-06T02:54:23;18.20;99.90
23116;DHT22;11727;52.134;5.052;2022-09-06T02:56:49;18.20;99.90
23116;DHT22;11727;52.134;5.052;2022-09-06T02:59:15;18.20;99.90
23116;DHT22;11727;52.134;5.052;2022-09-06T03:01:40;18.20;99.90
23116;DHT22;11727;52.134;5.052;2022-09-06T03:04:06;18.20;99.90
23116;DHT22;11727;52.134;5.052;2022-09-06T03:06:33;18.20;99.90
23116;DHT22;11727;52.134;5.052;2022-09-06T03:08:59;18.20;99.90
23116;DHT22;11727;52.134;5.052;2022-09-06T03:11:25;18.20;99.90
23116;DHT22;11727;52.134;5.052;2022-09-06T03:13:50;18.20;99.90
23116;DHT22;11727;52.134;5.052;2022-09-06T03:16:18;18.20;99.90
23116;DHT22;11727;52.134;5.052;2022-09-06T03:18:43;18.20;99.90
23116;DHT22;11727;52.134;5.052;2022-09-06T03:21:09;18.20;99.90
23116;DHT22;11727;52.134;5.052;2022-09-06T03:23:35;18.20;99.90
23116;DHT22;11727;52.134;5.052;2022-09-06T03:26:03;18.20;99.90
23116;DHT22;11727;52.134;5.052;2022-09-06T03:28:28;18.20;99.90
23116;DHT22;11727;52.134;5.052;2022-09-06T03:30:54;18.20;99.90
23116;DHT22;11727;52.134;5.052;2022-09-06T03:33:20;18.20;99.90
23116;DHT22;11727;52.134;5.052;2022-09-06T03:35:57;18.20;99.90
23116;DHT22;11727;52.134;5.052;2022-09-06T03:38:24;18.20;99.90
23116;DHT22;11727;52.134;5.052;2022-09-06T03:40:50;18.20;99.90
23116;DHT22;11727;52.134;5.052;2022-09-06T03:43:18;18.20;99.90
23116;DHT22;11727;52.134;5.052;2022-09-06T03:45:46;18.20;99.90
23116;DHT22;11727;52.134;5.052;2022-09-06T03:48:11;18.20;99.90
23116;DHT22;11727;52.134;5.052;2022-09-06T03:50:37;18.20;99.90
23116;DHT22;11727;52.134;5.052;2022-09-06T03:53:03;18.20;99.90
23116;DHT22;11727;52.134;5.052;2022-09-06T03:55:28;18.20;99.90
23116;DHT22;11727;52.134;5.052;2022-09-06T03:57:54;18.20;99.90
23116;DHT22;11727;52.134;5.052;2022-09-06T04:00:20;18.20;99.90
23116;DHT22;11727;52.134;5.052;2022-09-06T04:02:45;18.20;99.90
23116;DHT22;11727;52.134;5.052;2022-09-06T04:05:11;18.20;99.90
23116;DHT22;11727;52.134;5.052;2022-09-06T04:07:37;18.20;99.90
23116;DHT22;11727;52.134;5.052;2022-09-06T04:10:03;18.20;99.90
23116;DHT22;11727;52.134;5.052;2022-09-06T04:12:29;18.20;99.90
23116;DHT22;11727;52.134;5.052;2022-09-06T04:14:55;18.10;99.90
23116;DHT22;11727;52.134;5.052;2022-09-06T04:17:20;18.20;99.90
23116;DHT22;11727;52.134;5.052;2022-09-06T04:19:46;18.10;99.90
23116;DHT22;11727;52.134;5.052;2022-09-06T04:22:12;18.10;99.90
23116;DHT22;11727;52.134;5.052;2022-09-06T04:24:37;18.10;99.90
23116;DHT22;11727;52.134;5.052;2022-09-06T04:27:03;18.10;99.90
23116;DHT22;11727;52.134;5.052;2022-09-06T04:29:28;18.10;99.90
23116;DHT22;11727;52.134;5.052;2022-09-06T04:31:54;18.10;99.90
23116;DHT22;11727;52.134;5.052;2022-09-06T04:34:20;18.10;99.90
23116;DHT22;11727;52.134;5.052;2022-09-06T04:36:45;18.10;99.90
23116;DHT22;11727;52.134;5.052;2022-09-06T04:39:11;18.10;99.90
23116;DHT22;11727;52.134;5.052;2022-09-06T04:41:36;18.20;99.90
23116;DHT22;11727;52.134;5.052;2022-09-06T04:44:02;18.10;99.90
23116;DHT22;11727;52.134;5.052;2022-09-06T04:46:29;18.20;99.90
23116;DHT22;11727;52.134;5.052;2022-09-06T04:48:55;18.20;99.90
23116;DHT22;11727;52.134;5.052;2022-09-06T04:51:22;18.20;99.90
23116;DHT22;11727;52.134;5.052;2022-09-06T04:53:49;18.20;99.90
23116;DHT22;11727;52.134;5.052;2022-09-06T04:56:23;18.20;99.90
23116;DHT22;11727;52.134;5.052;2022-09-06T04:58:49;18.20;99.90
23116;DHT22;11727;52.134;5.052;2022-09-06T05:01:15;18.20;99.90
23116;DHT22;11727;52.134;5.052;2022-09-06T05:03:41;18.20;99.90
23116;DHT22;11727;52.134;5.052;2022-09-06T05:06:12;18.20;99.90
23116;DHT22;11727;52.134;5.052;2022-09-06T05:08:39;18.20;99.90
23116;DHT22;11727;52.134;5.052;2022-09-06T05:11:06;18.20;99.90
23116;DHT22;11727;52.134;5.052;2022-09-06T05:13:33;18.20;99.90
23116;DHT22;11727;52.134;5.052;2022-09-06T05:16:00;18.10;99.90
23116;DHT22;11727;52.134;5.052;2022-09-06T05:18:26;18.10;99.90
23116;DHT22;11727;52.134;5.052;2022-09-06T05:20:52;18.10;99.90
23116;DHT22;11727;52.134;5.052;2022-09-06T05:23:19;18.10;99.90
23116;DHT22;11727;52.134;5.052;2022-09-06T05:25:45;18.10;99.90
23116;DHT22;11727;52.134;5.052;2022-09-06T05:28:11;18.10;99.90
23116;DHT22;11727;52.134;5.052;2022-09-06T05:30:36;18.10;99.90
23116;DHT22;11727;52.134;5.052;2022-09-06T05:33:02;18.10;99.90
23116;DHT22;11727;52.134;5.052;2022-09-06T05:35:28;18.10;99.90
23116;DHT22;11727;52.134;5.052;2022-09-06T05:37:53;18.10;99.90
23116;DHT22;11727;52.134;5.052;2022-09-06T05:40:19;18.10;99.90
23116;DHT22;11727;52.134;5.052;2022-09-06T05:42:44;18.20;99.90
23116;DHT22;11727;52.134;5.052;2022-09-06T05:45:10;18.20;99.90
23116;DHT22;11727;52.134;5.052;2022-09-06T05:47:35;18.10;99.90
23116;DHT22;11727;52.134;5.052;2022-09-06T05:50:03;18.10;99.90
23116;DHT22;11727;52.134;5.052;2022-09-06T05:52:28;18.10;99.90
23116;DHT22;11727;52.134;5.052;2022-09-06T05:54:54;18.10;99.90
23116;DHT22;11727;52.134;5.052;2022-09-06T05:57:20;18.10;99.90
23116;DHT22;11727;52.134;5.052;2022-09-06T05:59:46;18.20;99.90
23116;DHT22;11727;52.134;5.052;2022-09-06T06:02:11;18.20;99.90
23116;DHT22;11727;52.134;5.052;2022-09-06T06:04:37;18.20;99.90
23116;DHT22;11727;52.134;5.052;2022-09-06T06:07:02;18.20;99.90
23116;DHT22;11727;52.134;5.052;2022-09-06T06:09:28;18.30;99.90
23116;DHT22;11727;52.134;5.052;2022-09-06T06:11:53;18.30;99.90
23116;DHT22;11727;52.134;5.052;2022-09-06T06:14:19;18.30;99.90
23116;DHT22;11727;52.134;5.052;2022-09-06T06:16:45;18.30;99.90
23116;DHT22;11727;52.134;5.052;2022-09-06T06:19:10;18.30;99.90
23116;DHT22;11727;52.134;5.052;2022-09-06T06:21:36;18.30;99.90
23116;DHT22;11727;52.134;5.052;2022-09-06T06:24:03;18.30;99.90
23116;DHT22;11727;52.134;5.052;2022-09-06T06:26:31;18.30;99.90
23116;DHT22;11727;52.134;5.052;2022-09-06T06:28:58;18.40;99.90
23116;DHT22;11727;52.134;5.052;2022-09-06T06:31:26;18.30;99.90
23116;DHT22;11727;52.134;5.052;2022-09-06T06:33:52;18.40;99.90
23116;DHT22;11727;52.134;5.052;2022-09-06T06:36:20;18.50;99.90
23116;DHT22;11727;52.134;5.052;2022-09-06T06:38:47;18.70;99.90
23116;DHT22;11727;52.134;5.052;2022-09-06T06:41:15;18.80;99.90
23116;DHT22;11727;52.134;5.052;2022-09-06T06:43:41;18.90;99.90
23116;DHT22;11727;52.134;5.052;2022-09-06T06:46:12;19.00;99.90
23116;DHT22;11727;52.134;5.052;2022-09-06T06:48:39;19.20;99.90
23116;DHT22;11727;52.134;5.052;2022-09-06T06:51:09;19.30;99.90
23116;DHT22;11727;52.134;5.052;2022-09-06T06:53:35;19.40;99.90
23116;DHT22;11727;52.134;5.052;2022-09-06T06:56:12;19.40;99.90
23116;DHT22;11727;52.134;5.052;2022-09-06T06:58:38;19.60;99.90
23116;DHT22;11727;52.134;5.052;2022-09-06T07:01:03;19.60;99.90
23116;DHT22;11727;52.134;5.052;2022-09-06T07:03:29;19.80;99.90
23116;DHT22;11727;52.134;5.052;2022-09-06T07:05:55;19.90;99.90
23116;DHT22;11727;52.134;5.052;2022-09-06T07:08:20;20.00;99.90
23116;DHT22;11727;52.134;5.052;2022-09-06T07:10:46;20.10;99.90
23116;DHT22;11727;52.134;5.052;2022-09-06T07:13:11;20.20;99.90
23116;DHT22;11727;52.134;5.052;2022-09-06T07:15:38;20.40;99.90
23116;DHT22;11727;52.134;5.052;2022-09-06T07:18:03;20.50;99.90
23116;DHT22;11727;52.134;5.052;2022-09-06T07:20:29;20.60;99.90
23116;DHT22;11727;52.134;5.052;2022-09-06T07:22:59;20.80;99.90
23116;DHT22;11727;52.134;5.052;2022-09-06T07:25:26;20.90;99.90
23116;DHT22;11727;52.134;5.052;2022-09-06T07:28:04;21.00;99.90
23116;DHT22;11727;52.134;5.052;2022-09-06T07:30:34;21.10;99.90
23116;DHT22;11727;52.134;5.052;2022-09-06T07:33:04;21.10;99.90
23116;DHT22;11727;52.134;5.052;2022-09-06T07:35:30;21.20;99.90
23116;DHT22;11727;52.134;5.052;2022-09-06T07:37:58;21.30;99.90
23116;DHT22;11727;52.134;5.052;2022-09-06T07:40:25;21.30;99.90
23116;DHT22;11727;52.134;5.052;2022-09-06T07:42:51;21.30;99.90
23116;DHT22;11727;52.134;5.052;2022-09-06T07:45:17;21.40;99.90
23116;DHT22;11727;52.134;5.052;2022-09-06T07:47:43;21.40;99.90
23116;DHT22;11727;52.134;5.052;2022-09-06T07:50:08;21.40;99.90
23116;DHT22;11727;52.134;5.052;2022-09-06T07:52:34;21.50;99.90
23116;DHT22;11727;52.134;5.052;2022-09-06T07:55:00;21.60;99.90
23116;DHT22;11727;52.134;5.052;2022-09-06T07:57:25;21.60;99.90
23116;DHT22;11727;52.134;5.052;2022-09-06T07:59:51;21.70;99.90
23116;DHT22;11727;52.134;5.052;2022-09-06T08:02:17;21.90;99.90
23116;DHT22;11727;52.134;5.052;2022-09-06T08:04:43;22.00;99.90
23116;DHT22;11727;52.134;5.052;2022-09-06T08:07:09;22.00;99.90
23116;DHT22;11727;52.134;5.052;2022-09-06T08:09:35;22.20;99.90
23116;DHT22;11727;52.134;5.052;2022-09-06T08:12:01;22.40;99.90
23116;DHT22;11727;52.134;5.052;2022-09-06T08:14:34;22.50;99.90
23116;DHT22;11727;52.134;5.052;2022-09-06T08:17:00;22.60;99.90
23116;DHT22;11727;52.134;5.052;2022-09-06T08:19:26;22.70;99.90
23116;DHT22;11727;52.134;5.052;2022-09-06T08:21:55;22.80;99.90
23116;DHT22;11727;52.134;5.052;2022-09-06T08:24:21;22.90;99.90
23116;DHT22;11727;52.134;5.052;2022-09-06T08:26:47;22.90;99.90
23116;DHT22;11727;52.134;5.052;2022-09-06T08:29:13;23.00;99.90
23116;DHT22;11727;52.134;5.052;2022-09-06T08:31:40;23.10;99.90
23116;DHT22;11727;52.134;5.052;2022-09-06T08:34:06;23.20;99.90
23116;DHT22;11727;52.134;5.052;2022-09-06T08:36:32;23.20;99.90
23116;DHT22;11727;52.134;5.052;2022-09-06T08:39:03;23.30;99.90
23116;DHT22;11727;52.134;5.052;2022-09-06T08:44:10;23.40;99.90
23116;DHT22;11727;52.134;5.052;2022-09-06T08:46:39;23.40;99.90
23116;DHT22;11727;52.134;5.052;2022-09-06T08:49:06;23.40;99.90
23116;DHT22;11727;52.134;5.052;2022-09-06T08:54:25;23.40;99.90
23116;DHT22;11727;52.134;5.052;2022-09-06T08:57:03;23.40;99.90
23116;DHT22;11727;52.134;5.052;2022-09-06T08:59:37;23.50;99.90
23116;DHT22;11727;52.134;5.052;2022-09-06T09:02:12;23.70;99.90
23116;DHT22;11727;52.134;5.052;2022-09-06T09:04:41;23.80;99.90
23116;DHT22;11727;52.134;5.052;2022-09-06T09:09:45;24.00;99.90
23116;DHT22;11727;52.134;5.052;2022-09-06T09:12:11;24.20;99.90
23116;DHT22;11727;52.134;5.052;2022-09-06T09:14:40;24.30;99.90
23116;DHT22;11727;52.134;5.052;2022-09-06T09:17:16;24.30;99.90
23116;DHT22;11727;52.134;5.052;2022-09-06T09:19:45;24.20;99.90
23116;DHT22;11727;52.134;5.052;2022-09-06T09:22:13;24.10;99.90
23116;DHT22;11727;52.134;5.052;2022-09-06T09:24:39;24.10;99.90
23116;DHT22;11727;52.134;5.052;2022-09-06T09:27:08;24.10;99.90
23116;DHT22;11727;52.134;5.052;2022-09-06T09:30:05;24.10;99.90
23116;DHT22;11727;52.134;5.052;2022-09-06T09:32:36;24.20;99.90
23116;DHT22;11727;52.134;5.052;2022-09-06T09:35:35;24.30;99.90
23116;DHT22;11727;52.134;5.052;2022-09-06T09:38:11;24.30;99.90
23116;DHT22;11727;52.134;5.052;2022-09-06T09:40:41;24.40;99.90
23116;DHT22;11727;52.134;5.052;2022-09-06T09:43:22;24.50;99.90
23116;DHT22;11727;52.134;5.052;2022-09-06T09:49:09;24.70;99.90
23116;DHT22;11727;52.134;5.052;2022-09-06T09:51:43;24.90;99.90
23116;DHT22;11727;52.134;5.052;2022-09-06T09:54:11;24.90;99.90
23116;DHT22;11727;52.134;5.052;2022-09-06T09:56:49;24.90;99.90
23116;DHT22;11727;52.134;5.052;2022-09-06T09:59:28;24.90;99.90
23116;DHT22;11727;52.134;5.052;2022-09-06T10:01:56;24.80;99.90
23116;DHT22;11727;52.134;5.052;2022-09-06T10:04:35;24.90;99.90
23116;DHT22;11727;52.134;5.052;2022-09-06T10:07:13;24.90;99.90
23116;DHT22;11727;52.134;5.052;2022-09-06T10:09:57;24.90;99.90
23116;DHT22;11727;52.134;5.052;2022-09-06T10:12:29;25.00;99.90
23116;DHT22;11727;52.134;5.052;2022-09-06T10:14:56;25.10;99.90
23116;DHT22;11727;52.134;5.052;2022-09-06T10:17:33;25.10;99.90
23116;DHT22;11727;52.134;5.052;2022-09-06T10:20:09;25.10;99.90
23116;DHT22;11727;52.134;5.052;2022-09-06T10:25:25;25.10;99.90
23116;DHT22;11727;52.134;5.052;2022-09-06T10:28:29;25.10;99.90
23116;DHT22;11727;52.134;5.052;2022-09-06T10:36:18;25.00;99.90
23116;DHT22;11727;52.134;5.052;2022-09-06T10:38:56;25.10;99.90
23116;DHT22;11727;52.134;5.052;2022-09-06T10:42:04;25.20;99.90
23116;DHT22;11727;52.134;5.052;2022-09-06T10:44:48;25.50;99.90
23116;DHT22;11727;52.134;5.052;2022-09-06T10:47:17;25.50;99.90
23116;DHT22;11727;52.134;5.052;2022-09-06T10:49:45;25.70;99.90
23116;DHT22;11727;52.134;5.052;2022-09-06T10:52:18;25.80;99.90
23116;DHT22;11727;52.134;5.052;2022-09-06T10:54:47;25.90;99.90
23116;DHT22;11727;52.134;5.052;2022-09-06T10:57:22;26.00;99.90
23116;DHT22;11727;52.134;5.052;2022-09-06T10:59:56;26.00;99.90
23116;DHT22;11727;52.134;5.052;2022-09-06T11:05:51;26.20;99.90
23116;DHT22;11727;52.134;5.052;2022-09-06T11:08:37;26.20;99.90
23116;DHT22;11727;52.134;5.052;2022-09-06T11:11:09;26.20;99.90
23116;DHT22;11727;52.134;5.052;2022-09-06T11:13:35;26.20;99.90
23116;DHT22;11727;52.134;5.052;2022-09-06T11:26:59;26.30;99.90
23116;DHT22;11727;52.134;5.052;2022-09-06T11:29:29;26.40;99.90
23116;DHT22;11727;52.134;5.052;2022-09-06T11:31:57;26.40;99.90
23116;DHT22;11727;52.134;5.052;2022-09-06T11:34:28;26.50;99.90
23116;DHT22;11727;52.134;5.052;2022-09-06T11:36:59;26.60;99.90
23116;DHT22;11727;52.134;5.052;2022-09-06T11:41:57;26.50;99.90
23116;DHT22;11727;52.134;5.052;2022-09-06T11:47:37;26.20;99.90
23116;DHT22;11727;52.134;5.052;2022-09-06T11:58:05;26.10;99.90
23116;DHT22;11727;52.134;5.052;2022-09-06T12:00:33;26.20;99.90
23116;DHT22;11727;52.134;5.052;2022-09-06T12:02:58;26.30;99.90
23116;DHT22;11727;52.134;5.052;2022-09-06T12:05:29;26.40;99.90
23116;DHT22;11727;52.134;5.052;2022-09-06T12:10:55;26.60;99.90
23116;DHT22;11727;52.134;5.052;2022-09-06T12:13:42;26.70;99.90
23116;DHT22;11727;52.134;5.052;2022-09-06T12:16:13;26.90;99.90
23116;DHT22;11727;52.134;5.052;2022-09-06T12:23:52;27.10;99.90
23116;DHT22;11727;52.134;5.052;2022-09-06T12:26:44;27.00;99.90
23116;DHT22;11727;52.134;5.052;2022-09-06T12:29:14;27.00;99.90
23116;DHT22;11727;52.134;5.052;2022-09-06T12:31:50;26.80;99.90
23116;DHT22;11727;52.134;5.052;2022-09-06T12:34:21;26.70;99.90
23116;DHT22;11727;52.134;5.052;2022-09-06T12:36:56;26.80;99.90
23116;DHT22;11727;52.134;5.052;2022-09-06T12:39:23;26.80;99.90
23116;DHT22;11727;52.134;5.052;2022-09-06T12:42:05;26.90;99.90
23116;DHT22;11727;52.134;5.052;2022-09-06T12:44:50;27.00;99.90
23116;DHT22;11727;52.134;5.052;2022-09-06T12:47:27;27.10;99.90
23116;DHT22;11727;52.134;5.052;2022-09-06T12:52:46;27.30;99.90
23116;DHT22;11727;52.134;5.052;2022-09-06T12:55:33;27.30;99.90
23116;DHT22;11727;52.134;5.052;2022-09-06T12:58:03;27.50;99.90
23116;DHT22;11727;52.134;5.052;2022-09-06T13:00:41;27.50;99.90
23116;DHT22;11727;52.134;5.052;2022-09-06T13:06:21;27.40;99.90
23116;DHT22;11727;52.134;5.052;2022-09-06T13:08:50;27.40;99.90
23116;DHT22;11727;52.134;5.052;2022-09-06T13:11:23;27.30;99.90
23116;DHT22;11727;52.134;5.052;2022-09-06T13:13:51;27.40;99.90
23116;DHT22;11727;52.134;5.052;2022-09-06T13:16:26;27.40;99.90
23116;DHT22;11727;52.134;5.052;2022-09-06T13:18:53;27.40;99.90
23116;DHT22;11727;52.134;5.052;2022-09-06T13:21:31;27.50;99.90
23116;DHT22;11727;52.134;5.052;2022-09-06T13:23:57;27.50;99.90
23116;DHT22;11727;52.134;5.052;2022-09-06T13:26:37;27.60;99.90
23116;DHT22;11727;52.134;5.052;2022-09-06T13:31:49;27.60;99.90
23116;DHT22;11727;52.134;5.052;2022-09-06T13:34:28;27.70;99.90
23116;DHT22;11727;52.134;5.052;2022-09-06T13:37:02;27.70;99.90
23116;DHT22;11727;52.134;5.052;2022-09-06T13:39:34;27.70;99.90
23116;DHT22;11727;52.134;5.052;2022-09-06T13:42:06;27.60;99.90
23116;DHT22;11727;52.134;5.052;2022-09-06T13:44:37;27.60;99.90
23116;DHT22;11727;52.134;5.052;2022-09-06T13:47:04;27.60;99.90
23116;DHT22;11727;52.134;5.052;2022-09-06T13:49:31;27.60;99.90
23116;DHT22;11727;52.134;5.052;2022-09-06T13:52:02;27.60;99.90
23116;DHT22;11727;52.134;5.052;2022-09-06T13:54:28;27.70;99.90
23116;DHT22;11727;52.134;5.052;2022-09-06T13:56:55;27.60;99.90
23116;DHT22;11727;52.134;5.052;2022-09-06T13:59:20;27.60;99.90
23116;DHT22;11727;52.134;5.052;2022-09-06T14:01:49;27.70;99.90
23116;DHT22;11727;52.134;5.052;2022-09-06T14:04:18;27.70;99.90
23116;DHT22;11727;52.134;5.052;2022-09-06T14:06:46;27.70;99.90
23116;DHT22;11727;52.134;5.052;2022-09-06T14:09:12;27.80;99.90
23116;DHT22;11727;52.134;5.052;2022-09-06T14:11:38;27.80;99.90
23116;DHT22;11727;52.134;5.052;2022-09-06T14:14:04;27.80;99.90
23116;DHT22;11727;52.134;5.052;2022-09-06T14:16:30;27.80;99.90
23116;DHT22;11727;52.134;5.052;2022-09-06T14:18:56;27.70;99.90
23116;DHT22;11727;52.134;5.052;2022-09-06T14:21:22;27.60;99.90
23116;DHT22;11727;52.134;5.052;2022-09-06T14:23:52;27.70;99.90
23116;DHT22;11727;52.134;5.052;2022-09-06T14:26:21;27.70;99.90
23116;DHT22;11727;52.134;5.052;2022-09-06T14:28:48;27.70;99.90
23116;DHT22;11727;52.134;5.052;2022-09-06T14:31:22;27.70;99.90
23116;DHT22;11727;52.134;5.052;2022-09-06T14:33:50;27.70;99.90
23116;DHT22;11727;52.134;5.052;2022-09-06T14:36:19;27.80;99.90
23116;DHT22;11727;52.134;5.052;2022-09-06T14:38:45;27.80;99.90
23116;DHT22;11727;52.134;5.052;2022-09-06T14:41:13;27.80;99.90
23116;DHT22;11727;52.134;5.052;2022-09-06T14:43:41;27.90;99.90
23116;DHT22;11727;52.134;5.052;2022-09-06T14:46:14;27.90;99.90
23116;DHT22;11727;52.134;5.052;2022-09-06T14:48:41;27.90;99.90
23116;DHT22;11727;52.134;5.052;2022-09-06T14:51:10;27.80;99.90
23116;DHT22;11727;52.134;5.052;2022-09-06T14:53:38;27.80;99.90
23116;DHT22;11727;52.134;5.052;2022-09-06T14:56:04;27.80;99.90
23116;DHT22;11727;52.134;5.052;2022-09-06T14:58:31;27.80;99.90
23116;DHT22;11727;52.134;5.052;2022-09-06T15:01:15;27.80;99.90
23116;DHT22;11727;52.134;5.052;2022-09-06T15:03:49;27.80;99.90
23116;DHT22;11727;52.134;5.052;2022-09-06T15:06:17;27.80;99.90
23116;DHT22;11727;52.134;5.052;2022-09-06T15:08:44;27.80;99.90
23116;DHT22;11727;52.134;5.052;2022-09-06T15:11:10;27.80;99.90
23116;DHT22;11727;52.134;5.052;2022-09-06T15:13:38;27.70;99.90
23116;DHT22;11727;52.134;5.052;2022-09-06T15:16:05;27.60;99.90
23116;DHT22;11727;52.134;5.052;2022-09-06T15:18:32;27.50;99.90
23116;DHT22;11727;52.134;5.052;2022-09-06T15:21:06;27.40;99.90
23116;DHT22;11727;52.134;5.052;2022-09-06T15:23:32;27.30;99.90
23116;DHT22;11727;52.134;5.052;2022-09-06T15:25:58;27.20;99.90
23116;DHT22;11727;52.134;5.052;2022-09-06T15:28:23;27.10;99.90
23116;DHT22;11727;52.134;5.052;2022-09-06T15:30:49;27.10;99.90
23116;DHT22;11727;52.134;5.052;2022-09-06T15:33:15;27.10;99.90
23116;DHT22;11727;52.134;5.052;2022-09-06T15:35:41;27.00;99.90
23116;DHT22;11727;52.134;5.052;2022-09-06T15:38:08;27.00;99.90
23116;DHT22;11727;52.134;5.052;2022-09-06T15:40:34;27.10;99.90
23116;DHT22;11727;52.134;5.052;2022-09-06T15:43:00;27.10;99.90
23116;DHT22;11727;52.134;5.052;2022-09-06T15:45:27;27.10;99.90
23116;DHT22;11727;52.134;5.052;2022-09-06T15:47:54;27.20;99.90
23116;DHT22;11727;52.134;5.052;2022-09-06T15:50:20;27.20;99.90
23116;DHT22;11727;52.134;5.052;2022-09-06T15:52:46;27.20;99.90
23116;DHT22;11727;52.134;5.052;2022-09-06T15:55:12;27.20;99.90
23116;DHT22;11727;52.134;5.052;2022-09-06T15:57:56;27.20;99.90
23116;DHT22;11727;52.134;5.052;2022-09-06T16:00:22;27.10;99.90
23116;DHT22;11727;52.134;5.052;2022-09-06T16:02:48;27.00;99.90
23116;DHT22;11727;52.134;5.052;2022-09-06T16:05:14;26.90;99.90
23116;DHT22;11727;52.134;5.052;2022-09-06T16:07:40;26.90;99.90
23116;DHT22;11727;52.134;5.052;2022-09-06T16:10:09;26.80;99.90
23116;DHT22;11727;52.134;5.052;2022-09-06T16:12:36;26.80;99.90
23116;DHT22;11727;52.134;5.052;2022-09-06T16:15:05;26.80;99.90
23116;DHT22;11727;52.134;5.052;2022-09-06T16:17:30;26.70;99.90
23116;DHT22;11727;52.134;5.052;2022-09-06T16:19:57;26.70;99.90
23116;DHT22;11727;52.134;5.052;2022-09-06T16:22:24;26.60;99.90
23116;DHT22;11727;52.134;5.052;2022-09-06T16:24:50;26.70;99.90
23116;DHT22;11727;52.134;5.052;2022-09-06T16:27:16;26.70;99.90
23116;DHT22;11727;52.134;5.052;2022-09-06T16:29:42;26.60;99.90
23116;DHT22;11727;52.134;5.052;2022-09-06T16:32:08;26.60;99.90
23116;DHT22;11727;52.134;5.052;2022-09-06T16:34:34;26.60;99.90
23116;DHT22;11727;52.134;5.052;2022-09-06T16:37:02;26.60;99.90
23116;DHT22;11727;52.134;5.052;2022-09-06T16:39:32;26.50;99.90
23116;DHT22;11727;52.134;5.052;2022-09-06T16:41:58;26.50;99.90
23116;DHT22;11727;52.134;5.052;2022-09-06T16:44:24;26.40;99.90
23116;DHT22;11727;52.134;5.052;2022-09-06T16:46:50;26.30;99.90
23116;DHT22;11727;52.134;5.052;2022-09-06T16:49:18;26.30;99.90
23116;DHT22;11727;52.134;5.052;2022-09-06T16:51:44;26.20;99.90
23116;DHT22;11727;52.134;5.052;2022-09-06T16:54:10;26.20;99.90
23116;DHT22;11727;52.134;5.052;2022-09-06T16:56:35;26.20;99.90
23116;DHT22;11727;52.134;5.052;2022-09-06T16:59:04;26.10;99.90
23116;DHT22;11727;52.134;5.052;2022-09-06T17:01:30;26.10;99.90
23116;DHT22;11727;52.134;5.052;2022-09-06T17:03:56;26.00;99.90
23116;DHT22;11727;52.134;5.052;2022-09-06T17:06:22;26.00;99.90
23116;DHT22;11727;52.134;5.052;2022-09-06T17:08:49;25.90;99.90